Time;durP1;ratioP1;P1;durP2;ratioP2;P2;SDS_P1;SDS_P2;PMS_P1;PMS_P2;Temp;Humidity;BMP_temperature;BMP_pressure;BME280_temperature;BME280_humidity;BME280_pressure;Samples;Min_cycle;Max_cycle;Signal;HPM_P1;HPM_P2
2021/07/30 00:01:25;;;;;;;8.20;4.63;;;16.40;99.90;;;;;;5055180;28;20186;-78
2021/07/30 00:03:50;;;;;;;12.73;4.68;;;16.40;99.90;;;;;;5038689;28;20249;-77
2021/07/30 00:06:16;;;;;;;9.07;4.93;;;16.30;99.90;;;;;;5079803;28;20643;-76
2021/07/30 00:08:41;;;;;;;22.42;5.57;;;16.30;99.90;;;;;;5057977;28;20189;-77
2021/07/30 00:11:07;;;;;;;9.05;4.90;;;16.20;99.90;;;;;;5073376;28;20522;-76
2021/07/30 00:13:33;;;;;;;9.30;4.85;;;16.20;99.90;;;;;;5073063;28;20167;-77
2021/07/30 00:15:58;;;;;;;8.25;4.50;;;16.20;99.90;;;;;;5076435;28;20220;-76
2021/07/30 00:18:24;;;;;;;10.30;4.80;;;16.20;99.90;;;;;;5073853;28;20271;-76
2021/07/30 00:20:50;;;;;;;9.60;4.75;;;16.20;99.90;;;;;;5072777;28;20179;-76
2021/07/30 00:23:15;;;;;;;9.80;5.00;;;16.10;99.90;;;;;;5073105;28;20163;-76
2021/07/30 00:25:41;;;;;;;10.65;4.18;;;16.00;99.90;;;;;;5073088;28;20518;-76
2021/07/30 00:28:06;;;;;;;15.05;5.00;;;16.00;99.90;;;;;;5078841;28;20185;-76
2021/07/30 00:30:32;;;;;;;9.45;4.07;;;16.00;99.90;;;;;;5058531;28;20174;-76
2021/07/30 00:32:58;;;;;;;8.88;4.38;;;15.90;99.90;;;;;;5075087;28;20636;-76
2021/07/30 00:35:23;;;;;;;14.02;6.05;;;15.80;99.90;;;;;;5056182;28;20186;-76
2021/07/30 00:37:49;;;;;;;11.88;4.90;;;15.80;99.90;;;;;;5056110;28;20565;-77
2021/07/30 00:40:15;;;;;;;8.95;4.53;;;15.70;99.90;;;;;;5055391;28;20568;-76
2021/07/30 00:42:49;;;;;;;10.38;4.65;;;15.70;99.90;;;;;;5089856;28;20174;-77
2021/07/30 00:45:14;;;;;;;11.52;4.95;;;15.80;99.90;;;;;;5078543;28;20178;-77
2021/07/30 00:47:40;;;;;;;7.18;4.40;;;15.80;99.90;;;;;;5056223;28;20178;-76
2021/07/30 00:50:06;;;;;;;8.05;4.90;;;15.80;99.90;;;;;;5072848;28;20254;-76
2021/07/30 00:52:32;;;;;;;19.45;5.47;;;15.70;99.90;;;;;;5072761;28;20182;-77
2021/07/30 00:54:57;;;;;;;20.75;5.15;;;15.70;99.90;;;;;;5083568;28;20208;-76
2021/07/30 00:57:23;;;;;;;14.45;5.15;;;15.60;99.90;;;;;;5091198;28;20220;-77
2021/07/30 00:59:50;;;;;;;17.48;5.43;;;15.60;99.90;;;;;;5093543;28;20163;-76
2021/07/30 01:02:17;;;;;;;16.27;5.55;;;15.60;99.90;;;;;;5096570;28;20174;-76
2021/07/30 01:04:42;;;;;;;10.57;4.90;;;15.60;99.90;;;;;;5069816;28;20166;-80
2021/07/30 01:07:08;;;;;;;14.98;5.88;;;15.60;99.90;;;;;;5070124;28;20266;-76
2021/07/30 01:09:34;;;;;;;11.68;5.32;;;15.60;99.90;;;;;;5041638;28;20197;-76
2021/07/30 01:12:01;;;;;;;9.50;4.72;;;15.50;99.90;;;;;;5074928;28;20192;-78
2021/07/30 01:14:28;;;;;;;10.32;4.80;;;15.50;99.90;;;;;;5084420;28;20175;-76
2021/07/30 01:16:53;;;;;;;11.88;5.13;;;15.50;99.90;;;;;;5092278;28;20685;-76
2021/07/30 01:19:22;;;;;;;13.35;5.60;;;15.40;99.90;;;;;;5096156;28;20209;-81
2021/07/30 01:21:49;;;;;;;10.38;5.20;;;15.50;99.90;;;;;;5096196;28;20170;-76
2021/07/30 01:24:15;;;;;;;11.75;5.38;;;15.50;99.90;;;;;;5076243;28;20200;-76
2021/07/30 01:26:41;;;;;;;12.77;5.32;;;15.60;99.90;;;;;;5081750;28;20175;-76
2021/07/30 01:29:07;;;;;;;9.80;4.75;;;15.80;99.90;;;;;;5075846;28;20162;-76
2021/07/30 01:31:33;;;;;;;14.15;5.20;;;15.80;99.90;;;;;;5057906;28;20657;-77
2021/07/30 01:33:58;;;;;;;9.80;5.25;;;15.90;99.90;;;;;;5047362;28;20202;-77
2021/07/30 01:36:24;;;;;;;8.63;5.05;;;16.00;99.90;;;;;;5048443;28;20182;-76
2021/07/30 01:38:49;;;;;;;16.92;5.60;;;16.00;99.90;;;;;;5057331;28;20207;-76
2021/07/30 01:41:15;;;;;;;13.32;4.93;;;15.90;99.90;;;;;;5074240;28;20224;-76
2021/07/30 01:43:42;;;;;;;10.77;5.40;;;15.90;99.90;;;;;;5076666;28;20637;-76
2021/07/30 01:46:08;;;;;;;15.70;5.60;;;15.90;99.90;;;;;;5065747;28;20181;-76
2021/07/30 01:48:34;;;;;;;10.88;5.43;;;15.80;99.90;;;;;;5095590;28;20665;-77
2021/07/30 01:51:00;;;;;;;7.25;4.85;;;15.70;99.90;;;;;;5077530;28;20257;-76
2021/07/30 01:53:27;;;;;;;11.80;5.75;;;15.60;99.90;;;;;;5090352;28;20177;-76
2021/07/30 01:55:52;;;;;;;11.48;5.10;;;15.60;99.90;;;;;;5080291;28;20624;-76
2021/07/30 01:58:18;;;;;;;8.85;5.32;;;15.60;99.90;;;;;;5095121;28;20266;-76
2021/07/30 02:00:43;;;;;;;11.82;5.57;;;15.70;99.90;;;;;;5077426;28;20243;-76
2021/07/30 02:03:09;;;;;;;11.90;5.85;;;15.70;99.90;;;;;;5075207;28;20619;-80
2021/07/30 02:05:41;;;;;;;10.57;5.38;;;15.80;99.90;;;;;;5091317;28;20189;-76
2021/07/30 02:08:07;;;;;;;15.45;5.78;;;15.80;99.90;;;;;;5095194;28;20200;-76
2021/07/30 02:10:34;;;;;;;10.02;4.90;;;15.80;99.90;;;;;;5094966;28;20209;-76
2021/07/30 02:15:43;;;;;;;13.30;5.07;;;15.80;99.90;;;;;;5076650;28;20189;-76
2021/07/30 02:18:09;;;;;;;11.60;5.45;;;15.80;99.90;;;;;;5074821;28;20199;-76
2021/07/30 02:20:35;;;;;;;10.68;5.03;;;15.70;99.90;;;;;;5056800;28;20290;-77
2021/07/30 02:23:01;;;;;;;9.68;5.07;;;15.60;99.90;;;;;;5076987;28;20182;-76
2021/07/30 02:25:26;;;;;;;13.07;5.28;;;15.50;99.90;;;;;;5076474;28;20614;-76
2021/07/30 02:27:52;;;;;;;13.00;5.20;;;15.40;99.90;;;;;;5057836;28;20261;-76
2021/07/30 02:30:17;;;;;;;13.93;5.28;;;15.40;99.90;;;;;;5040379;28;20179;-76
2021/07/30 02:32:43;;;;;;;18.10;5.47;;;15.50;99.90;;;;;;5075119;28;20646;-79
2021/07/30 02:35:09;;;;;;;12.75;6.10;;;15.50;99.90;;;;;;5094022;28;20233;-76
2021/07/30 02:37:35;;;;;;;13.38;5.40;;;15.40;99.90;;;;;;5079608;28;20290;-77
2021/07/30 02:40:00;;;;;;;12.18;4.97;;;15.30;99.90;;;;;;5074344;28;20210;-77
2021/07/30 02:42:26;;;;;;;16.35;5.63;;;15.30;99.90;;;;;;5074678;28;20520;-76
2021/07/30 02:44:52;;;;;;;12.57;4.85;;;15.40;99.90;;;;;;5057623;28;20217;-76
2021/07/30 02:47:17;;;;;;;16.90;6.13;;;15.40;99.90;;;;;;5086803;28;20177;-76
2021/07/30 02:49:43;;;;;;;12.15;4.78;;;15.40;99.90;;;;;;5075864;28;20229;-77
2021/07/30 02:52:09;;;;;;;7.07;4.55;;;15.30;99.90;;;;;;5094149;28;20527;-76
2021/07/30 02:54:35;;;;;;;10.40;4.90;;;15.20;99.90;;;;;;5078901;28;20182;-76
2021/07/30 02:57:00;;;;;;;18.70;6.60;;;15.10;99.90;;;;;;5077082;28;20204;-76
2021/07/30 02:59:26;;;;;;;14.50;6.38;;;15.20;99.90;;;;;;5056207;28;20193;-76
2021/07/30 03:01:52;;;;;;;9.70;5.25;;;15.40;99.90;;;;;;5073732;28;20170;-76
2021/07/30 03:04:17;;;;;;;12.00;5.60;;;15.40;99.90;;;;;;5077909;28;20183;-76
2021/07/30 03:06:43;;;;;;;8.10;5.47;;;15.50;99.90;;;;;;5063391;28;20524;-76
2021/07/30 03:09:08;;;;;;;8.55;5.60;;;15.40;99.90;;;;;;5075864;28;20213;-76
2021/07/30 03:11:34;;;;;;;13.38;5.63;;;15.40;99.90;;;;;;5094028;28;20185;-76
2021/07/30 03:14:00;;;;;;;9.55;5.57;;;15.40;99.90;;;;;;5080716;28;20178;-78
2021/07/30 03:16:25;;;;;;;13.90;5.15;;;15.40;99.90;;;;;;5044372;28;20170;-76
2021/07/30 03:18:51;;;;;;;7.13;5.25;;;15.40;99.90;;;;;;5093792;28;20281;-76
2021/07/30 03:21:16;;;;;;;17.88;5.90;;;15.40;99.90;;;;;;5093752;28;20174;-76
2021/07/30 03:23:42;;;;;;;6.82;4.90;;;15.40;99.90;;;;;;5080098;28;20615;-76
2021/07/30 03:26:08;;;;;;;7.72;5.78;;;15.40;99.90;;;;;;5073954;28;20175;-76
2021/07/30 03:28:33;;;;;;;9.30;5.40;;;15.40;99.90;;;;;;5073665;28;20178;-76
2021/07/30 03:31:00;;;;;;;9.77;5.50;;;15.40;99.90;;;;;;5073320;28;20171;-76
2021/07/30 03:33:26;;;;;;;15.38;5.60;;;15.40;99.90;;;;;;5082419;28;20212;-76
2021/07/30 03:35:52;;;;;;;8.07;5.50;;;15.40;99.90;;;;;;5093539;28;20628;-76
2021/07/30 03:38:17;;;;;;;8.27;5.47;;;15.40;99.90;;;;;;5093036;28;20293;-76
2021/07/30 03:40:43;;;;;;;12.70;5.43;;;15.30;99.90;;;;;;5093769;28;20189;-76
2021/07/30 03:43:09;;;;;;;12.10;4.90;;;15.30;99.90;;;;;;5092058;28;20263;-76
2021/07/30 03:45:35;;;;;;;13.93;6.22;;;15.30;99.90;;;;;;5093582;28;20174;-76
2021/07/30 03:48:00;;;;;;;16.63;5.72;;;15.20;99.90;;;;;;5058608;28;20189;-77
2021/07/30 03:50:26;;;;;;;13.90;5.53;;;15.20;99.90;;;;;;5073447;28;20171;-77
2021/07/30 03:52:52;;;;;;;8.23;5.50;;;15.30;99.90;;;;;;5077346;28;20544;-76
2021/07/30 03:55:18;;;;;;;14.13;5.85;;;15.20;99.90;;;;;;5093618;28;20162;-77
2021/07/30 03:57:44;;;;;;;12.05;5.43;;;15.20;99.90;;;;;;5074859;28;20221;-77
2021/07/30 04:00:10;;;;;;;12.43;5.80;;;15.20;99.90;;;;;;5075370;28;20178;-76
2021/07/30 04:02:36;;;;;;;9.00;5.38;;;15.30;99.90;;;;;;5090396;28;20219;-76
2021/07/30 04:05:01;;;;;;;12.05;5.68;;;15.20;99.90;;;;;;5055317;28;20178;-77
2021/07/30 04:07:27;;;;;;;12.52;6.15;;;15.30;99.90;;;;;;5073591;28;20170;-78
2021/07/30 04:09:54;;;;;;;10.02;5.68;;;15.30;99.90;;;;;;5073367;28;20171;-76
2021/07/30 04:12:21;;;;;;;25.35;5.88;;;15.40;99.90;;;;;;5074267;28;20166;-78
2021/07/30 04:14:47;;;;;;;10.07;4.82;;;15.40;99.90;;;;;;5055311;28;20162;-76
2021/07/30 04:17:13;;;;;;;12.68;5.15;;;15.40;99.90;;;;;;5055541;28;20683;-79
2021/07/30 04:19:43;;;;;;;17.35;5.43;;;15.40;99.90;;;;;;5073115;28;20584;-79
2021/07/30 04:22:10;;;;;;;10.00;5.55;;;15.40;99.90;;;;;;5055829;28;20155;-80
2021/07/30 04:24:36;;;;;;;13.55;5.65;;;15.40;99.90;;;;;;5073113;28;20319;-77
2021/07/30 04:27:01;;;;;;;13.00;5.93;;;15.50;99.90;;;;;;5055021;28;20258;-77
2021/07/30 04:29:27;;;;;;;18.40;5.90;;;15.50;99.90;;;;;;5055248;28;20166;-78
2021/07/30 04:31:53;;;;;;;15.18;6.32;;;15.60;99.90;;;;;;5073038;28;20174;-77
2021/07/30 04:34:18;;;;;;;11.40;5.75;;;15.70;99.90;;;;;;5056303;28;20179;-76
2021/07/30 04:36:44;;;;;;;10.75;6.15;;;15.80;99.90;;;;;;5063676;28;20174;-76
2021/07/30 04:39:10;;;;;;;13.70;6.60;;;16.00;99.90;;;;;;5078848;28;20198;-76
2021/07/30 04:41:36;;;;;;;21.10;6.75;;;16.10;99.90;;;;;;5061954;28;20178;-76
2021/07/30 04:44:01;;;;;;;14.98;6.15;;;16.20;99.90;;;;;;5080247;28;20596;-77
2021/07/30 04:46:27;;;;;;;11.55;6.15;;;16.30;99.90;;;;;;5078244;28;20256;-76
2021/07/30 04:48:52;;;;;;;18.45;5.93;;;16.40;99.90;;;;;;5078657;28;20186;-77
2021/07/30 04:51:18;;;;;;;12.55;5.95;;;16.40;99.90;;;;;;5096802;28;20170;-77
2021/07/30 04:53:46;;;;;;;14.23;5.75;;;16.50;99.90;;;;;;5095041;28;20269;-77
2021/07/30 04:56:19;;;;;;;8.10;4.82;;;16.50;99.90;;;;;;5096656;28;20170;-77
2021/07/30 04:58:45;;;;;;;16.67;5.93;;;16.60;99.90;;;;;;5096379;28;20221;-76
2021/07/30 05:01:11;;;;;;;9.07;5.25;;;16.70;99.90;;;;;;5078423;28;20170;-76
2021/07/30 05:03:36;;;;;;;7.63;5.57;;;16.90;99.90;;;;;;5064946;28;20179;-76
2021/07/30 05:06:15;;;;;;;7.78;4.53;;;17.10;99.90;;;;;;5076028;28;20202;-77
2021/07/30 05:08:42;;;;;;;9.45;4.20;;;17.30;99.90;;;;;;5075167;28;20678;-78
2021/07/30 05:11:08;;;;;;;15.77;4.93;;;17.80;99.90;;;;;;5096175;28;20171;-77
2021/07/30 05:13:34;;;;;;;11.52;3.90;;;18.60;99.90;;;;;;5094934;28;20170;-77
2021/07/30 05:16:11;;;;;;;7.40;3.45;;;19.50;99.90;;;;;;5096360;28;20223;-77
2021/07/30 05:18:37;;;;;;;7.72;3.42;;;20.50;99.90;;;;;;5095608;28;20205;-77
2021/07/30 05:21:05;;;;;;;13.90;3.38;;;21.00;99.90;;;;;;5095991;28;20170;-77
2021/07/30 05:23:31;;;;;;;5.80;3.63;;;21.00;99.90;;;;;;5076550;28;20174;-77
2021/07/30 05:25:57;;;;;;;9.30;3.38;;;20.80;99.90;;;;;;5096229;28;20170;-77
2021/07/30 05:28:22;;;;;;;5.25;2.92;;;20.60;99.90;;;;;;5064838;28;20227;-77
2021/07/30 05:30:48;;;;;;;12.13;3.85;;;20.50;99.90;;;;;;5075953;28;20175;-77
2021/07/30 05:33:14;;;;;;;11.07;3.13;;;20.40;99.90;;;;;;5076142;28;20304;-77
2021/07/30 05:35:39;;;;;;;15.20;3.47;;;20.40;99.90;;;;;;5075436;28;20174;-77
2021/07/30 05:38:05;;;;;;;7.78;3.58;;;20.40;99.90;;;;;;5085821;28;20201;-77
2021/07/30 05:40:31;;;;;;;13.82;3.17;;;20.30;99.90;;;;;;5061177;28;20166;-77
2021/07/30 05:42:56;;;;;;;7.47;3.28;;;20.30;99.90;;;;;;5076026;28;20174;-77
2021/07/30 05:45:22;;;;;;;6.57;2.78;;;20.40;99.90;;;;;;5095493;28;20486;-77
2021/07/30 05:47:48;;;;;;;11.82;3.00;;;20.50;99.90;;;;;;5087650;28;20174;-77
2021/07/30 05:50:14;;;;;;;8.45;3.05;;;20.60;99.90;;;;;;5075271;28;20667;-77
2021/07/30 05:52:39;;;;;;;8.07;3.45;;;20.60;99.90;;;;;;5076668;28;20170;-77
2021/07/30 05:55:06;;;;;;;10.40;2.92;;;20.80;99.90;;;;;;5057351;28;20174;-77
2021/07/30 05:57:33;;;;;;;9.63;3.15;;;20.90;99.90;;;;;;5079961;28;20583;-78
2021/07/30 06:00:04;;;;;;;9.98;3.10;;;20.70;99.90;;;;;;5095582;28;20160;-77
2021/07/30 06:02:29;;;;;;;4.10;2.53;;;20.70;99.90;;;;;;5091513;28;20198;-77
2021/07/30 06:04:55;;;;;;;7.72;2.60;;;20.80;99.90;;;;;;5075036;28;20201;-77
2021/07/30 06:07:21;;;;;;;4.60;2.50;;;21.00;99.90;;;;;;5060030;28;20180;-77
2021/07/30 06:09:46;;;;;;;7.60;2.72;;;21.50;99.90;;;;;;5094874;28;20261;-77
2021/07/30 06:12:12;;;;;;;3.65;2.08;;;22.10;99.90;;;;;;5075519;28;20174;-77
2021/07/30 06:14:37;;;;;;;5.55;2.30;;;22.70;99.90;;;;;;5077484;28;20170;-77
2021/07/30 06:17:03;;;;;;;6.35;2.58;;;22.80;99.90;;;;;;5094313;28;20189;-77
2021/07/30 06:19:29;;;;;;;14.32;2.40;;;22.60;99.90;;;;;;5074746;28;20264;-77
2021/07/30 06:21:54;;;;;;;4.22;2.15;;;22.30;99.90;;;;;;5092013;28;20266;-77
2021/07/30 06:24:20;;;;;;;4.63;2.00;;;22.20;99.90;;;;;;5095071;28;20501;-77
2021/07/30 06:26:46;;;;;;;8.50;3.08;;;22.00;99.90;;;;;;5076919;28;20170;-77
2021/07/30 06:29:11;;;;;;;4.78;2.20;;;21.90;99.90;;;;;;5094900;28;20659;-77
2021/07/30 06:31:37;;;;;;;6.22;2.30;;;21.90;99.90;;;;;;5075006;28;20173;-77
2021/07/30 06:34:03;;;;;;;8.70;2.30;;;21.60;99.90;;;;;;5094495;28;20181;-76
2021/07/30 06:36:28;;;;;;;11.38;2.63;;;21.80;99.90;;;;;;5076667;28;20620;-77
2021/07/30 06:38:54;;;;;;;5.65;2.15;;;22.20;99.90;;;;;;5094372;28;20671;-77
2021/07/30 06:41:19;;;;;;;10.40;2.10;;;22.60;99.90;;;;;;5064027;28;20210;-77
2021/07/30 06:43:45;;;;;;;5.40;2.10;;;23.30;99.90;;;;;;5074344;28;20624;-78
2021/07/30 06:46:11;;;;;;;6.70;2.58;;;23.20;99.90;;;;;;5074385;28;20171;-77
2021/07/30 06:48:36;;;;;;;6.32;2.15;;;23.40;99.90;;;;;;5073914;28;20175;-77
2021/07/30 06:51:02;;;;;;;9.23;2.33;;;23.60;99.90;;;;;;5065656;28;20563;-77
2021/07/30 06:53:28;;;;;;;7.85;2.80;;;24.10;99.90;;;;;;5075846;28;20218;-77
2021/07/30 06:55:54;;;;;;;5.03;2.75;;;24.40;99.90;;;;;;5056489;28;20228;-78
2021/07/30 06:58:19;;;;;;;6.32;2.92;;;24.70;99.90;;;;;;5073318;28;20221;-82
2021/07/30 07:00:45;;;;;;;4.05;2.03;;;25.90;99.90;;;;;;5064067;28;20170;-79
2021/07/30 07:03:11;;;;;;;2.65;1.92;;;26.60;99.90;;;;;;5092385;28;20231;-78
2021/07/30 07:05:36;;;;;;;6.68;1.70;;;26.80;99.90;;;;;;5076453;28;20181;-78
2021/07/30 07:08:02;;;;;;;7.70;2.20;;;27.40;99.90;;;;;;5093933;28;20170;-77
2021/07/30 07:10:28;;;;;;;5.20;1.50;;;28.20;99.90;;;;;;5055734;28;20267;-77
2021/07/30 07:12:53;;;;;;;2.38;1.30;;;28.60;99.90;;;;;;5039116;28;20635;-78
2021/07/30 07:15:19;;;;;;;4.53;1.50;;;29.10;99.90;;;;;;5073891;28;20171;-77
2021/07/30 07:17:44;;;;;;;4.40;1.90;;;29.20;99.90;;;;;;5055820;28;20203;-80
2021/07/30 07:20:11;;;;;;;4.05;1.75;;;29.60;99.90;;;;;;5076303;28;20196;-77
2021/07/30 07:22:36;;;;;;;2.78;1.52;;;30.10;99.90;;;;;;5094057;28;20169;-78
2021/07/30 07:25:02;;;;;;;3.90;1.45;;;30.60;99.90;;;;;;5093976;28;20174;-78
2021/07/30 07:27:28;;;;;;;2.53;1.38;;;31.00;99.90;;;;;;5093945;28;20166;-78
2021/07/30 07:29:53;;;;;;;3.83;1.65;;;31.90;99.90;;;;;;5070563;28;20270;-78
2021/07/30 07:32:19;;;;;;;7.05;2.08;;;32.40;99.90;;;;;;5074777;28;20269;-79
2021/07/30 07:34:45;;;;;;;4.65;1.27;;;32.70;99.90;;;;;;5093602;28;20686;-84
2021/07/30 07:37:10;;;;;;;5.00;1.58;;;32.20;99.90;;;;;;5093485;28;20204;-80
2021/07/30 07:39:36;;;;;;;9.90;1.80;;;31.70;99.90;;;;;;5092927;28;20182;-79
2021/07/30 07:42:02;;;;;;;4.18;1.60;;;32.00;99.90;;;;;;5075359;28;20273;-75
2021/07/30 07:44:28;;;;;;;7.78;1.70;;;33.20;99.90;;;;;;5093628;28;20169;-79
2021/07/30 07:46:55;;;;;;;4.60;1.40;;;33.50;99.90;;;;;;5093419;28;20166;-77
2021/07/30 07:49:20;;;;;;;10.43;1.55;;;33.60;99.90;;;;;;5093301;28;20180;-80
2021/07/30 07:51:46;;;;;;;3.10;1.23;;;33.80;99.90;;;;;;5068227;28;20173;-84
2021/07/30 07:54:11;;;;;;;5.75;1.40;;;34.30;99.60;;;;;;5093634;28;20165;-78
2021/07/30 07:56:37;;;;;;;6.28;1.60;;;34.80;98.60;;;;;;5093523;28;20688;-78
2021/07/30 07:59:03;;;;;;;7.80;1.40;;;34.80;96.60;;;;;;5093122;28;20213;-80
2021/07/30 08:01:28;;;;;;;3.05;1.38;;;34.40;97.00;;;;;;5058132;28;20181;-79
2021/07/30 08:03:54;;;;;;;2.55;1.50;;;33.20;98.50;;;;;;5058721;28;20615;-78
2021/07/30 08:06:21;;;;;;;8.27;1.92;;;31.60;99.70;;;;;;5093158;28;20177;-78
2021/07/30 08:08:48;;;;;;;3.95;1.73;;;31.20;99.90;;;;;;5075581;28;20180;-82
2021/07/30 08:11:14;;;;;;;8.40;1.83;;;31.90;99.90;;;;;;5095570;28;20269;-78
2021/07/30 08:13:40;;;;;;;6.43;2.03;;;31.90;99.80;;;;;;5081784;28;20563;-78
2021/07/30 08:16:06;;;;;;;3.00;1.65;;;31.60;99.90;;;;;;5099565;28;20168;-78
2021/07/30 08:18:32;;;;;;;6.72;2.25;;;31.00;99.90;;;;;;5081143;28;20205;-77
2021/07/30 08:20:59;;;;;;;3.28;1.77;;;32.10;99.90;;;;;;5069403;28;20176;-78
2021/07/30 08:23:25;;;;;;;5.93;1.67;;;33.30;99.40;;;;;;5077938;28;20205;-78
2021/07/30 08:25:51;;;;;;;9.15;1.75;;;34.00;98.50;;;;;;5042767;28;20193;-78
2021/07/30 08:28:16;;;;;;;3.95;1.98;;;33.80;98.10;;;;;;5077761;28;20166;-78
2021/07/30 08:30:42;;;;;;;6.05;1.67;;;34.40;96.50;;;;;;5070767;28;20173;-78
2021/07/30 08:33:08;;;;;;;5.70;1.73;;;35.00;97.00;;;;;;5098080;28;20177;-86
2021/07/30 08:35:34;;;;;;;4.43;2.03;;;35.40;95.90;;;;;;5079690;28;20173;-80
2021/07/30 08:38:00;;;;;;;5.15;2.60;;;35.40;96.20;;;;;;5098089;28;20208;-80
2021/07/30 08:40:32;;;;;;;4.20;2.17;;;35.80;95.00;;;;;;5097077;28;20177;-77
2021/07/30 08:42:59;;;;;;;2.83;2.00;;;35.90;96.60;;;;;;5096818;28;20169;-82
2021/07/30 08:45:25;;;;;;;4.82;2.20;;;35.70;95.20;;;;;;5098664;28;20177;-81
2021/07/30 08:47:54;;;;;;;10.50;2.53;;;36.30;95.50;;;;;;5101248;28;20174;-79
2021/07/30 08:50:20;;;;;;;7.15;2.40;;;35.80;94.80;;;;;;5101208;28;20172;-78
2021/07/30 08:52:54;;;;;;;7.03;2.67;;;34.80;95.40;;;;;;5066389;28;20197;-78
2021/07/30 08:55:29;;;;;;;3.28;2.25;;;34.10;96.70;;;;;;5059887;28;20244;-78
2021/07/30 08:57:54;;;;;;;5.40;2.70;;;34.10;96.00;;;;;;5077652;28;20708;-78
2021/07/30 09:00:21;;;;;;;8.95;2.58;;;35.00;95.50;;;;;;5044706;28;20163;-78
2021/07/30 09:02:47;;;;;;;4.90;2.38;;;35.40;95.60;;;;;;5072287;28;20203;-79
2021/07/30 09:05:32;;;;;;;4.05;2.22;;;36.20;94.80;;;;;;5099759;28;20165;-78
2021/07/30 09:08:04;;;;;;;3.78;1.88;;;37.30;94.10;;;;;;5080505;28;20212;-79
2021/07/30 09:10:43;;;;;;;5.50;1.90;;;37.10;92.50;;;;;;5097177;28;20254;-79
2021/07/30 09:13:26;;;;;;;6.88;1.90;;;35.00;94.80;;;;;;5059592;28;20192;-78
2021/07/30 09:16:07;;;;;;;4.43;2.25;;;36.10;94.70;;;;;;5061041;28;20508;-80
2021/07/30 09:18:51;;;;;;;3.35;1.85;;;35.00;93.60;;;;;;5077592;28;20639;-78
2021/07/30 09:21:32;;;;;;;7.78;2.00;;;34.10;95.60;;;;;;5077018;28;20158;-80
2021/07/30 09:24:03;;;;;;;6.63;1.90;;;32.60;96.40;;;;;;5097692;28;20162;-80
2021/07/30 09:26:56;;;;;;;7.22;2.22;;;30.70;97.40;;;;;;5096895;28;20182;-79
2021/07/30 09:29:27;;;;;;;9.93;2.10;;;29.50;99.90;;;;;;5097153;28;20150;-80
2021/07/30 09:32:01;;;;;;;7.43;2.28;;;28.90;99.90;;;;;;5091769;28;20166;-79
2021/07/30 09:34:27;;;;;;;6.00;1.90;;;28.00;99.90;;;;;;5076759;28;20151;-79
2021/07/30 09:36:57;;;;;;;3.78;2.20;;;27.50;99.90;;;;;;5058428;28;20181;-79
2021/07/30 09:39:27;;;;;;;6.55;1.90;;;27.40;99.90;;;;;;5076589;28;20191;-79
2021/07/30 09:42:01;;;;;;;7.47;2.10;;;27.10;99.90;;;;;;5076200;28;20198;-79
2021/07/30 09:44:28;;;;;;;5.55;2.05;;;26.60;99.90;;;;;;5076608;28;20238;-78
2021/07/30 09:47:14;;;;;;;2.47;2.13;;;26.10;99.90;;;;;;5058169;28;20166;-79
2021/07/30 09:49:40;;;;;;;7.35;2.25;;;25.60;99.90;;;;;;5076428;28;20159;-78
2021/07/30 09:52:10;;;;;;;5.55;2.40;;;25.20;99.90;;;;;;5079757;28;20653;-79
2021/07/30 09:54:40;;;;;;;5.53;2.20;;;25.00;99.90;;;;;;5062224;28;20193;-79
2021/07/30 09:57:07;;;;;;;5.57;2.38;;;24.80;99.90;;;;;;5096577;28;20151;-80
2021/07/30 09:59:35;;;;;;;3.38;2.30;;;24.60;99.90;;;;;;5077838;28;20210;-78
2021/07/30 10:02:01;;;;;;;12.82;2.42;;;24.50;99.90;;;;;;5096483;28;20166;-80
2021/07/30 10:04:29;;;;;;;4.22;1.98;;;24.50;99.90;;;;;;5096008;28;20174;-77
2021/07/30 10:06:54;;;;;;;7.40;2.42;;;25.40;99.90;;;;;;5078396;28;20184;-79
2021/07/30 10:09:20;;;;;;;4.68;2.45;;;26.80;99.90;;;;;;5077560;28;20174;-78
2021/07/30 10:11:47;;;;;;;6.80;2.40;;;28.40;99.90;;;;;;5077743;28;20307;-79
2021/07/30 10:14:13;;;;;;;6.60;2.00;;;29.20;99.90;;;;;;5077433;28;20523;-80
2021/07/30 10:16:54;;;;;;;3.20;2.00;;;28.90;99.90;;;;;;5058372;28;20167;-80
2021/07/30 10:19:19;;;;;;;3.72;1.73;;;28.00;99.90;;;;;;5058012;28;20186;-79
2021/07/30 10:21:46;;;;;;;3.35;1.83;;;27.30;99.90;;;;;;5075778;28;20175;-79
2021/07/30 10:24:13;;;;;;;4.75;1.83;;;26.60;99.90;;;;;;5076785;28;20253;-78
2021/07/30 10:26:39;;;;;;;2.28;1.83;;;26.40;99.90;;;;;;5047617;28;20194;-79
2021/07/30 10:29:07;;;;;;;10.38;2.20;;;26.50;99.90;;;;;;5077051;28;20181;-81
2021/07/30 10:31:50;;;;;;;5.88;2.10;;;26.70;99.90;;;;;;5078152;28;20173;-81
2021/07/30 10:34:48;;;;;;;3.67;1.60;;;27.20;99.90;;;;;;5078787;28;20258;-83
2021/07/30 10:37:34;;;;;;;5.47;2.05;;;27.10;99.90;;;;;;5057994;28;20518;-82
2021/07/30 10:40:29;;;;;;;2.58;1.90;;;27.40;99.90;;;;;;5057707;28;20182;-82
2021/07/30 10:43:14;;;;;;;3.45;2.25;;;27.70;99.90;;;;;;5057820;28;20671;-80
2021/07/30 10:45:40;;;;;;;1.90;1.75;;;27.60;99.90;;;;;;5041109;28;20171;-79
2021/07/30 10:48:15;;;;;;;5.03;2.38;;;27.40;99.90;;;;;;5057944;28;20181;-80
2021/07/30 10:50:43;;;;;;;3.35;2.08;;;27.30;99.90;;;;;;5057270;28;20216;-78
2021/07/30 10:53:33;;;;;;;4.72;1.80;;;27.60;99.90;;;;;;5076253;28;20174;-79
2021/07/30 10:56:06;;;;;;;4.28;1.95;;;28.00;99.90;;;;;;5075570;28;20163;-78
2021/07/30 10:58:41;;;;;;;5.38;1.90;;;28.50;99.90;;;;;;5074159;28;20336;-79
2021/07/30 11:01:07;;;;;;;6.57;2.45;;;28.90;99.90;;;;;;5056119;28;20227;-80
2021/07/30 11:03:51;;;;;;;2.53;1.80;;;28.20;99.90;;;;;;5075727;28;20655;-80
2021/07/30 11:06:21;;;;;;;5.05;1.83;;;27.10;99.90;;;;;;5075676;28;20585;-79
2021/07/30 11:11:57;;;;;;;2.17;1.90;;;26.30;99.90;;;;;;5073832;28;20183;-80
2021/07/30 11:14:28;;;;;;;2.53;1.90;;;25.90;99.90;;;;;;5085807;28;20166;-78
2021/07/30 11:16:55;;;;;;;3.85;2.25;;;25.50;99.90;;;;;;5075929;28;20639;-80
2021/07/30 11:19:33;;;;;;;3.00;2.03;;;25.60;99.90;;;;;;5075911;28;20202;-81
2021/07/30 11:22:10;;;;;;;2.95;2.28;;;25.80;99.90;;;;;;5093813;28;20166;-79
2021/07/30 11:24:44;;;;;;;4.07;2.25;;;25.50;99.90;;;;;;5079896;28;20174;-80
2021/07/30 11:27:12;;;;;;;7.38;2.13;;;25.20;99.90;;;;;;5055892;28;20247;-80
2021/07/30 11:29:41;;;;;;;2.28;2.08;;;24.90;99.90;;;;;;5073592;28;20628;-80
2021/07/30 11:32:08;;;;;;;5.18;2.58;;;25.10;99.90;;;;;;5074073;28;20203;-78
2021/07/30 11:34:37;;;;;;;3.08;2.40;;;25.10;99.90;;;;;;5057616;28;20182;-79
2021/07/30 11:37:09;;;;;;;3.55;2.30;;;24.90;99.90;;;;;;5073842;28;20163;-81
2021/07/30 11:39:39;;;;;;;3.20;1.88;;;24.60;99.90;;;;;;5067526;28;20206;-79
2021/07/30 11:42:08;;;;;;;5.25;2.40;;;24.10;99.90;;;;;;5075522;28;20261;-80
2021/07/30 11:44:47;;;;;;;6.28;1.80;;;23.90;99.90;;;;;;5067280;28;20257;-78
2021/07/30 11:47:13;;;;;;;8.65;2.53;;;23.40;99.90;;;;;;5073534;28;20216;-80
2021/07/30 11:49:41;;;;;;;3.97;2.13;;;23.20;99.90;;;;;;5055815;28;20179;-80
2021/07/30 11:52:10;;;;;;;7.63;2.40;;;22.80;99.90;;;;;;5065355;28;20182;-78
2021/07/30 11:54:36;;;;;;;4.38;2.25;;;22.60;99.90;;;;;;5073447;28;20167;-79
2021/07/30 11:57:02;;;;;;;6.05;2.30;;;22.50;99.90;;;;;;5055216;28;20170;-79
2021/07/30 11:59:43;;;;;;;4.30;2.15;;;22.50;99.90;;;;;;5038365;28;20229;-81
2021/07/30 12:02:09;;;;;;;2.97;2.30;;;22.60;99.90;;;;;;5086529;28;20173;-78
2021/07/30 12:04:35;;;;;;;4.35;2.17;;;22.80;99.90;;;;;;5072237;28;20181;-79
2021/07/30 12:07:15;;;;;;;5.78;2.13;;;22.80;99.90;;;;;;5075593;28;20174;-78
2021/07/30 12:09:41;;;;;;;2.55;2.35;;;22.80;99.90;;;;;;5093188;28;20158;-80
2021/07/30 12:12:12;;;;;;;2.40;2.15;;;22.70;99.90;;;;;;5048989;28;20236;-78
2021/07/30 12:14:38;;;;;;;3.25;2.40;;;22.70;99.90;;;;;;5076103;28;20177;-78
2021/07/30 12:17:05;;;;;;;7.15;2.40;;;22.90;99.90;;;;;;5075377;28;20177;-83
2021/07/30 12:19:34;;;;;;;2.60;2.40;;;23.00;99.90;;;;;;5092655;28;20717;-81
2021/07/30 12:22:05;;;;;;;6.05;2.53;;;23.20;99.90;;;;;;5086087;28;20170;-79
2021/07/30 12:24:32;;;;;;;4.63;2.70;;;23.00;99.90;;;;;;5055535;28;20159;-79
2021/07/30 12:27:18;;;;;;;11.32;2.67;;;22.70;99.90;;;;;;5083406;28;20631;-79
2021/07/30 12:29:47;;;;;;;11.63;3.10;;;22.50;99.90;;;;;;5077737;28;20235;-78
2021/07/30 12:32:20;;;;;;;7.90;3.08;;;22.00;99.90;;;;;;5091016;28;20181;-81
2021/07/30 12:34:56;;;;;;;11.57;3.83;;;21.80;99.90;;;;;;5060632;28;20203;-79
2021/07/30 12:37:23;;;;;;;6.30;3.35;;;21.80;99.90;;;;;;5075200;28;20260;-80
2021/07/30 12:39:51;;;;;;;3.42;2.55;;;22.00;99.90;;;;;;5075271;28;20197;-78
2021/07/30 12:42:22;;;;;;;6.35;3.40;;;22.00;99.90;;;;;;5065959;28;20182;-79
2021/07/30 12:45:12;;;;;;;3.72;2.13;;;22.30;99.90;;;;;;5073547;28;20194;-79
2021/07/30 12:47:58;;;;;;;7.00;2.30;;;22.40;99.90;;;;;;5073026;28;20199;-80
2021/07/30 12:50:29;;;;;;;3.67;1.90;;;22.50;99.90;;;;;;5059261;28;20570;-80
2021/07/30 12:53:03;;;;;;;5.15;2.00;;;22.50;99.90;;;;;;5063441;28;20188;-79